createdAt,value
2023-01-28T00:00:51.901Z,10.80
2023-01-28T00:03:09.311Z,8.80
2023-01-28T00:05:22.602Z,4.90
2023-01-28T00:07:36.321Z,6.60
2023-01-28T00:09:49.462Z,9.70
2023-01-28T00:12:03.156Z,11.50
2023-01-28T00:14:17.023Z,9.90
2023-01-28T00:16:31.814Z,12.90
2023-01-28T00:18:46.485Z,9.70
2023-01-28T00:21:07.582Z,8.60
2023-01-28T00:23:21.562Z,9.10
2023-01-28T00:25:34.802Z,9.90
2023-01-28T00:27:48.542Z,7.30
2023-01-28T00:30:03.356Z,8.30
2023-01-28T00:32:17.053Z,7.40
2023-01-28T00:34:34.391Z,6.40
2023-01-28T00:36:47.301Z,6.10
2023-01-28T00:39:02.580Z,6.60
2023-01-28T00:41:16.582Z,6.10
2023-01-28T00:43:29.591Z,6.40
2023-01-28T00:45:42.855Z,6.90
2023-01-28T00:47:55.950Z,5.80
2023-01-28T00:50:10.121Z,5.90
2023-01-28T00:52:23.492Z,8.30
2023-01-28T00:54:37.658Z,10.40
2023-01-28T00:56:51.172Z,4.70
2023-01-28T00:59:04.590Z,8.10
2023-01-28T01:01:20.220Z,5.40
2023-01-28T01:03:33.860Z,8.50
2023-01-28T01:05:48.093Z,10.00
2023-01-28T01:08:01.113Z,9.90
2023-01-28T01:10:16.062Z,10.00
2023-01-28T01:12:29.402Z,5.60
2023-01-28T01:14:42.380Z,4.00
2023-01-28T01:16:56.420Z,8.10
2023-01-28T01:19:10.316Z,5.20
2023-01-28T01:21:25.163Z,6.30
2023-01-28T01:23:38.513Z,6.40
2023-01-28T01:25:53.022Z,11.40
2023-01-28T01:28:06.150Z,5.50
2023-01-28T01:30:19.891Z,6.00
2023-01-28T01:32:36.210Z,4.40
2023-01-28T01:34:50.761Z,3.40
2023-01-28T01:37:05.141Z,6.10
2023-01-28T01:39:18.642Z,7.90
2023-01-28T01:41:34.089Z,5.50
2023-01-28T01:44:00.065Z,5.10
2023-01-28T01:46:13.319Z,4.50
2023-01-28T01:48:32.892Z,7.30
2023-01-28T01:50:56.967Z,4.60
2023-01-28T01:53:15.141Z,5.90
2023-01-28T01:55:31.953Z,7.20
2023-01-28T01:57:45.880Z,7.70
2023-01-28T02:00:06.981Z,5.70
2023-01-28T02:02:29.471Z,3.30
2023-01-28T02:04:45.852Z,6.40
2023-01-28T02:07:03.665Z,4.30
2023-01-28T02:09:30.862Z,2.90
2023-01-28T02:11:44.066Z,4.00
2023-01-28T02:14:00.632Z,5.90
2023-01-28T02:16:16.240Z,4.70
2023-01-28T02:18:31.070Z,5.10
2023-01-28T02:21:02.212Z,4.60
2023-01-28T02:23:48.533Z,4.60
2023-01-28T02:26:32.840Z,5.50
2023-01-28T02:28:52.304Z,3.60
2023-01-28T02:31:12.516Z,4.20
2023-01-28T02:33:33.481Z,5.10
2023-01-28T02:35:51.641Z,7.60
2023-01-28T02:38:11.861Z,6.40
2023-01-28T02:40:30.988Z,10.90
2023-01-28T02:42:45.935Z,8.00
2023-01-28T02:45:00.638Z,7.90
2023-01-28T02:47:33.530Z,6.40
2023-01-28T02:49:51.852Z,6.30
2023-01-28T02:52:19.098Z,6.30
2023-01-28T02:54:43.993Z,5.40
2023-01-28T02:57:04.119Z,3.70
2023-01-28T02:59:38.038Z,4.60
2023-01-28T03:02:00.449Z,6.90
2023-01-28T03:04:20.873Z,5.10
2023-01-28T03:06:40.539Z,7.00
2023-01-28T03:09:13.539Z,5.80
2023-01-28T03:11:44.698Z,6.40
2023-01-28T03:14:14.450Z,7.70
2023-01-28T03:16:43.992Z,5.70
2023-01-28T03:19:14.819Z,6.90
2023-01-28T03:21:48.704Z,7.70
2023-01-28T03:24:22.914Z,8.30
2023-01-28T03:26:56.360Z,7.60
2023-01-28T03:29:30.761Z,3.80
2023-01-28T03:32:01.201Z,7.80
2023-01-28T03:34:33.450Z,6.90
2023-01-28T03:36:52.511Z,4.10
2023-01-28T03:39:31.787Z,6.80
2023-01-28T03:41:44.989Z,5.30
2023-01-28T03:44:13.289Z,5.60
2023-01-28T03:46:27.319Z,6.80
2023-01-28T03:48:40.909Z,6.10
2023-01-28T03:50:56.013Z,3.30
2023-01-28T03:53:16.914Z,3.00
2023-01-28T03:55:35.641Z,4.90
2023-01-28T03:57:49.660Z,5.70
2023-01-28T04:00:03.382Z,4.80
2023-01-28T04:02:28.470Z,4.10
2023-01-28T04:04:45.460Z,5.10
2023-01-28T04:07:00.061Z,6.90
2023-01-28T04:09:51.259Z,5.40
2023-01-28T04:12:13.381Z,5.70
2023-01-28T04:14:33.034Z,6.50
2023-01-28T04:17:00.547Z,4.70
2023-01-28T04:19:14.919Z,7.00
2023-01-28T04:21:30.152Z,4.70
2023-01-28T04:23:45.602Z,3.50
2023-01-28T04:26:00.102Z,3.30
2023-01-28T04:28:13.609Z,3.00
2023-01-28T04:30:27.667Z,2.20
2023-01-28T04:32:59.120Z,4.90
2023-01-28T04:35:23.299Z,6.10
2023-01-28T04:37:57.193Z,3.90
2023-01-28T04:40:18.057Z,2.10
2023-01-28T04:42:42.913Z,2.80
2023-01-28T04:45:06.809Z,3.60
2023-01-28T04:47:58.799Z,4.10
2023-01-28T04:50:35.292Z,3.70
2023-01-28T04:53:02.768Z,5.30
2023-01-28T04:55:36.370Z,7.50
2023-01-28T04:57:50.568Z,7.20
2023-01-28T05:00:04.642Z,7.50
2023-01-28T05:02:18.267Z,8.00
2023-01-28T05:04:32.802Z,6.30
2023-01-28T05:06:46.741Z,6.90
2023-01-28T05:09:07.669Z,6.40
2023-01-28T05:11:21.259Z,4.40
2023-01-28T05:13:38.330Z,7.40
2023-01-28T05:15:57.187Z,6.00
2023-01-28T05:18:11.661Z,6.30
2023-01-28T05:20:30.300Z,5.60
2023-01-28T05:22:43.999Z,6.80
2023-01-28T05:25:08.898Z,5.80
2023-01-28T05:27:22.684Z,6.00
2023-01-28T05:29:36.274Z,3.80
2023-01-28T05:31:50.720Z,3.80
2023-01-28T05:34:03.865Z,5.20
2023-01-28T05:36:17.711Z,4.70
2023-01-28T05:38:31.155Z,4.90
2023-01-28T05:40:44.351Z,4.80
2023-01-28T05:42:58.939Z,4.70
2023-01-28T05:45:24.495Z,4.40
2023-01-28T05:47:56.333Z,4.30
2023-01-28T05:50:19.419Z,4.60
2023-01-28T05:53:05.093Z,4.50
2023-01-28T05:55:20.781Z,5.20
2023-01-28T05:57:34.100Z,5.50
2023-01-28T05:59:48.420Z,5.90
2023-01-28T06:02:02.446Z,4.10
2023-01-28T06:04:16.303Z,3.70
2023-01-28T06:06:30.102Z,3.90
2023-01-28T06:08:43.339Z,3.70
2023-01-28T06:10:57.079Z,3.60
2023-01-28T06:13:10.899Z,2.80
2023-01-28T06:15:42.287Z,4.10
2023-01-28T06:18:05.863Z,5.00
2023-01-28T06:20:22.003Z,5.10
2023-01-28T06:22:36.630Z,5.00
2023-01-28T06:24:49.910Z,3.60
2023-01-28T06:27:03.716Z,3.10
2023-01-28T06:29:16.676Z,7.70
2023-01-28T06:31:30.120Z,3.60
2023-01-28T06:33:43.461Z,6.80
2023-01-28T06:35:56.658Z,5.80
2023-01-28T06:38:10.668Z,4.90
2023-01-28T06:40:26.242Z,7.70
2023-01-28T06:42:39.080Z,4.00
2023-01-28T06:44:52.122Z,5.70
2023-01-28T06:47:05.009Z,4.10
2023-01-28T06:49:18.171Z,4.90
2023-01-28T06:51:31.151Z,4.80
2023-01-28T06:53:46.038Z,2.80
2023-01-28T06:55:59.569Z,5.80
2023-01-28T06:58:14.809Z,4.10
2023-01-28T07:00:28.793Z,5.70
2023-01-28T07:02:41.761Z,5.30
2023-01-28T07:04:55.056Z,4.10
2023-01-28T07:07:08.725Z,1.80
2023-01-28T07:09:22.240Z,2.10
2023-01-28T07:11:36.074Z,2.70
2023-01-28T07:13:49.191Z,5.00
2023-01-28T07:16:02.136Z,5.60
2023-01-28T07:18:15.622Z,4.60
2023-01-28T07:20:28.699Z,3.40
2023-01-28T07:22:42.522Z,5.50
2023-01-28T07:24:55.443Z,9.20
2023-01-28T07:27:09.019Z,4.40
2023-01-28T07:29:22.580Z,3.90
2023-01-28T07:31:36.970Z,3.70
2023-01-28T07:33:51.244Z,2.70
2023-01-28T07:36:04.346Z,5.30
2023-01-28T07:38:18.637Z,5.10
2023-01-28T07:40:32.650Z,5.20
2023-01-28T07:42:45.653Z,5.00
2023-01-28T07:44:58.632Z,5.90
2023-01-28T07:47:13.517Z,7.80
2023-01-28T07:49:27.319Z,7.40
2023-01-28T07:51:40.439Z,6.10
2023-01-28T07:53:53.759Z,7.00
2023-01-28T07:56:10.233Z,5.90
2023-01-28T07:58:23.179Z,8.60
2023-01-28T08:00:39.447Z,7.60
2023-01-28T08:02:52.870Z,6.50
2023-01-28T08:05:06.018Z,5.20
2023-01-28T08:07:19.646Z,6.80
2023-01-28T08:09:35.349Z,3.00
2023-01-28T08:11:49.270Z,3.20
2023-01-28T08:14:02.320Z,6.80
2023-01-28T08:16:15.698Z,5.50
2023-01-28T08:18:28.741Z,6.10
2023-01-28T08:20:42.520Z,5.40
2023-01-28T08:22:55.363Z,6.70
2023-01-28T08:25:09.075Z,5.70
2023-01-28T08:27:22.047Z,4.50
2023-01-28T08:29:35.640Z,2.70
2023-01-28T08:31:48.798Z,2.80
2023-01-28T08:34:05.282Z,3.90
2023-01-28T08:36:19.043Z,3.20
2023-01-28T08:38:33.007Z,1.70
2023-01-28T08:40:46.128Z,2.80
2023-01-28T08:43:00.013Z,2.70
2023-01-28T08:45:14.521Z,1.90
2023-01-28T08:47:27.834Z,4.10
2023-01-28T08:49:40.860Z,3.60
2023-01-28T08:51:53.809Z,3.70
2023-01-28T08:54:06.703Z,3.20
2023-01-28T08:56:19.542Z,3.40
2023-01-28T08:58:33.754Z,3.20
2023-01-28T09:00:47.418Z,2.50
2023-01-28T09:03:01.030Z,3.40
2023-01-28T09:05:14.791Z,4.00
2023-01-28T09:07:31.311Z,4.20
2023-01-28T09:09:44.888Z,3.60
2023-01-28T09:11:57.910Z,3.80
2023-01-28T09:14:11.733Z,4.80
2023-01-28T09:16:26.820Z,3.30
2023-01-28T09:18:40.544Z,2.40
2023-01-28T09:20:53.603Z,4.20
2023-01-28T09:23:08.630Z,2.70
2023-01-28T09:25:22.549Z,2.60
2023-01-28T09:27:35.733Z,2.90
2023-01-28T09:29:48.983Z,3.70
2023-01-28T09:32:01.949Z,3.20
2023-01-28T09:34:15.200Z,2.90
2023-01-28T09:36:29.385Z,3.10
2023-01-28T09:38:42.959Z,3.70
2023-01-28T09:40:57.240Z,3.80
2023-01-28T09:43:34.609Z,3.80
2023-01-28T09:45:50.943Z,3.50
2023-01-28T09:48:06.959Z,4.30
2023-01-28T09:50:27.059Z,4.20
2023-01-28T09:52:43.790Z,3.70
2023-01-28T09:55:02.130Z,4.50
2023-01-28T09:57:23.069Z,6.70
2023-01-28T09:59:38.370Z,4.40
2023-01-28T10:01:56.571Z,4.90
2023-01-28T10:04:24.265Z,3.90
2023-01-28T10:06:49.418Z,4.60
2023-01-28T10:09:28.897Z,2.10
2023-01-28T10:11:57.179Z,4.30
2023-01-28T10:14:16.252Z,3.00
2023-01-28T10:16:38.279Z,3.60
2023-01-28T10:18:57.441Z,2.60
2023-01-28T10:21:16.430Z,3.30
2023-01-28T10:23:35.980Z,3.40
2023-01-28T10:25:51.340Z,3.80
2023-01-28T10:28:04.500Z,4.10
2023-01-28T10:30:26.483Z,4.50
2023-01-28T10:32:43.211Z,3.20
2023-01-28T10:34:57.960Z,4.10
2023-01-28T10:37:13.222Z,4.20
2023-01-28T10:39:29.151Z,3.20
2023-01-28T10:41:55.724Z,3.20
2023-01-28T10:44:14.670Z,4.20
2023-01-28T10:46:32.242Z,2.80
2023-01-28T10:48:49.651Z,4.40
2023-01-28T10:51:06.779Z,3.60
2023-01-28T10:53:20.126Z,5.70
2023-01-28T10:55:35.441Z,5.10
2023-01-28T10:57:51.777Z,2.90
2023-01-28T11:00:17.091Z,2.00
2023-01-28T11:02:38.241Z,2.90
2023-01-28T11:04:51.312Z,1.80
2023-01-28T11:07:07.296Z,1.80
2023-01-28T11:09:31.962Z,3.00
2023-01-28T11:11:45.071Z,2.50
2023-01-28T11:13:59.789Z,2.80
2023-01-28T11:16:23.512Z,1.60
2023-01-28T11:18:39.489Z,1.70
2023-01-28T11:20:59.680Z,1.90
2023-01-28T11:23:21.540Z,2.90
2023-01-28T11:25:37.941Z,2.80
2023-01-28T11:27:55.114Z,3.70
2023-01-28T11:30:10.262Z,4.30
2023-01-28T11:32:28.751Z,4.20
2023-01-28T11:34:51.515Z,4.00
2023-01-28T11:37:18.466Z,3.30
2023-01-28T11:39:32.980Z,2.10
2023-01-28T11:41:46.491Z,3.60
2023-01-28T11:44:00.359Z,4.30
2023-01-28T11:46:32.931Z,7.80
2023-01-28T11:48:54.843Z,4.10
2023-01-28T11:51:19.520Z,2.50
2023-01-28T11:54:04.529Z,4.00
2023-01-28T11:56:31.693Z,4.10
2023-01-28T11:58:56.415Z,4.20
2023-01-28T12:01:16.020Z,3.70
2023-01-28T12:03:43.708Z,3.40
2023-01-28T12:05:59.663Z,5.60
2023-01-28T12:08:20.891Z,3.80
2023-01-28T12:10:43.191Z,5.60
2023-01-28T12:13:14.183Z,3.30
2023-01-28T12:15:44.363Z,4.40
2023-01-28T12:18:11.995Z,4.30
2023-01-28T12:20:32.799Z,4.30
2023-01-28T12:23:17.294Z,3.50
2023-01-28T12:25:42.672Z,2.70
2023-01-28T12:28:02.519Z,4.10
2023-01-28T12:30:28.159Z,3.40
2023-01-28T12:33:01.299Z,3.60
2023-01-28T12:35:34.459Z,7.20
2023-01-28T12:38:01.015Z,4.50
2023-01-28T12:40:37.031Z,3.80
2023-01-28T12:42:56.310Z,3.30
2023-01-28T12:45:19.663Z,2.50
2023-01-28T12:47:37.369Z,3.10
2023-01-28T12:49:54.490Z,3.50
2023-01-28T12:52:14.400Z,6.80
2023-01-28T12:54:32.500Z,4.10
2023-01-28T12:56:49.186Z,4.20
2023-01-28T12:59:07.612Z,2.00
2023-01-28T13:01:26.760Z,5.50
2023-01-28T13:03:45.599Z,4.10
2023-01-28T13:06:03.864Z,3.20
2023-01-28T13:08:22.702Z,4.00
2023-01-28T13:10:42.159Z,4.90
2023-01-28T13:12:55.591Z,2.20
2023-01-28T13:15:09.822Z,3.40
2023-01-28T13:17:33.848Z,2.60
2023-01-28T13:19:47.913Z,1.90
2023-01-28T13:22:01.070Z,3.30
2023-01-28T13:24:34.969Z,2.80
2023-01-28T13:26:52.061Z,4.00
2023-01-28T13:29:26.033Z,4.20
2023-01-28T13:31:43.940Z,3.20
2023-01-28T13:34:08.488Z,2.00
2023-01-28T13:36:31.031Z,2.00
2023-01-28T13:38:44.521Z,3.00
2023-01-28T13:41:07.510Z,2.90
2023-01-28T13:43:42.993Z,2.60
2023-01-28T13:46:05.448Z,2.90
2023-01-28T13:48:33.303Z,1.60
2023-01-28T13:50:49.135Z,1.70
2023-01-28T13:53:07.931Z,1.70
2023-01-28T13:55:42.987Z,2.20
2023-01-28T13:58:29.140Z,1.70
2023-01-28T14:01:01.414Z,1.40
2023-01-28T14:03:33.881Z,1.20
2023-01-28T14:06:09.853Z,1.70
2023-01-28T14:08:57.938Z,1.60
2023-01-28T14:11:29.060Z,2.40
2023-01-28T14:14:04.490Z,2.80
2023-01-28T14:16:40.071Z,2.10
2023-01-28T14:18:54.601Z,1.10
2023-01-28T14:21:13.132Z,1.20
2023-01-28T14:23:28.040Z,1.10
2023-01-28T14:25:53.961Z,0.90
2023-01-28T14:28:10.507Z,1.00
2023-01-28T14:30:29.879Z,0.80
2023-01-28T14:32:48.312Z,0.90
2023-01-28T14:35:03.019Z,0.80
2023-01-28T14:37:22.132Z,0.80
2023-01-28T14:39:40.907Z,0.70
2023-01-28T14:41:56.663Z,0.80
2023-01-28T14:44:11.560Z,0.90
2023-01-28T14:46:37.344Z,0.60
2023-01-28T14:49:00.792Z,0.70
2023-01-28T14:51:34.262Z,0.60
2023-01-28T14:54:18.302Z,0.60
2023-01-28T14:56:44.605Z,1.10
2023-01-28T14:59:01.562Z,0.50
2023-01-28T15:01:26.745Z,0.50
2023-01-28T15:03:48.764Z,0.60
2023-01-28T15:06:16.938Z,0.50
2023-01-28T15:08:30.070Z,0.50
2023-01-28T15:10:44.477Z,0.50
2023-01-28T15:13:03.159Z,0.50
2023-01-28T15:15:21.613Z,0.50
2023-01-28T15:17:35.083Z,0.60
2023-01-28T15:19:48.170Z,0.50
2023-01-28T15:22:04.381Z,0.50
2023-01-28T15:24:19.767Z,1.10
2023-01-28T15:26:35.118Z,0.60
2023-01-28T15:28:49.880Z,0.40
2023-01-28T15:31:03.892Z,0.60
2023-01-28T15:33:21.046Z,0.60
2023-01-28T15:35:34.651Z,0.60
2023-01-28T15:40:22.316Z,0.70
2023-01-28T15:42:39.769Z,0.50
2023-01-28T15:44:53.918Z,0.70
2023-01-28T15:47:14.947Z,0.40
2023-01-28T15:49:31.355Z,0.40
2023-01-28T15:51:44.654Z,0.50
2023-01-28T15:54:01.301Z,0.50
2023-01-28T15:56:17.249Z,0.40
2023-01-28T15:58:38.219Z,1.10
2023-01-28T16:00:52.466Z,0.50
2023-01-28T16:03:13.744Z,0.50
2023-01-28T16:05:38.938Z,0.60
2023-01-28T16:07:52.419Z,0.50
2023-01-28T16:10:06.949Z,0.40
2023-01-28T16:12:22.789Z,0.60
2023-01-28T16:14:41.408Z,0.50
2023-01-28T16:16:55.108Z,0.50
2023-01-28T16:19:10.001Z,0.80
2023-01-28T16:21:30.473Z,0.50
2023-01-28T16:23:43.798Z,0.80
2023-01-28T16:26:05.039Z,0.80
2023-01-28T16:28:23.410Z,0.60
2023-01-28T16:30:36.675Z,0.50
2023-01-28T16:32:50.499Z,0.40
2023-01-28T16:35:04.309Z,0.40
2023-01-28T16:37:17.751Z,0.50
2023-01-28T16:39:31.405Z,0.40
2023-01-28T16:41:46.972Z,0.40
2023-01-28T16:44:02.331Z,0.40
2023-01-28T16:46:18.337Z,0.40
2023-01-28T16:48:31.841Z,0.50
2023-01-28T16:50:46.719Z,0.40
2023-01-28T16:53:03.650Z,0.40
2023-01-28T16:55:21.254Z,0.40
2023-01-28T16:57:38.862Z,0.40
2023-01-28T16:59:52.118Z,0.50
2023-01-28T17:02:06.160Z,0.50
2023-01-28T17:04:19.600Z,0.40
2023-01-28T17:06:32.792Z,0.40
2023-01-28T17:08:46.960Z,0.40
2023-01-28T17:11:00.759Z,0.50
2023-01-28T17:13:15.049Z,0.50
2023-01-28T17:15:28.194Z,0.70
2023-01-28T17:17:41.176Z,1.00
2023-01-28T17:19:55.073Z,1.50
2023-01-28T17:22:08.120Z,2.00
2023-01-28T17:24:22.054Z,0.70
2023-01-28T17:26:36.479Z,0.80
2023-01-28T17:28:54.829Z,0.80
2023-01-28T17:31:13.237Z,0.80
2023-01-28T17:33:26.202Z,0.60
2023-01-28T17:35:39.922Z,0.70
2023-01-28T17:37:55.527Z,0.60
2023-01-28T17:40:10.410Z,0.50
2023-01-28T17:42:25.401Z,0.50
2023-01-28T17:44:40.059Z,0.60
2023-01-28T17:46:53.078Z,0.80
2023-01-28T17:49:07.517Z,1.40
2023-01-28T17:51:21.643Z,0.60
2023-01-28T17:53:35.121Z,0.90
2023-01-28T17:55:48.795Z,1.00
2023-01-28T17:58:02.214Z,0.80
2023-01-28T18:00:20.381Z,1.10
2023-01-28T18:02:33.781Z,1.60
2023-01-28T18:04:47.699Z,1.20
2023-01-28T18:07:01.231Z,1.80
2023-01-28T18:09:14.985Z,1.90
2023-01-28T18:11:28.245Z,1.80
2023-01-28T18:13:43.671Z,2.20
2023-01-28T18:15:57.111Z,3.20
2023-01-28T18:18:13.752Z,2.70
2023-01-28T18:20:27.358Z,3.20
2023-01-28T18:22:40.379Z,2.40
2023-01-28T18:24:53.599Z,3.10
2023-01-28T18:27:07.575Z,2.40
2023-01-28T18:29:21.731Z,3.40
2023-01-28T18:31:34.980Z,4.50
2023-01-28T18:33:48.558Z,8.10
2023-01-28T18:36:01.705Z,10.30
2023-01-28T18:38:15.870Z,3.50
2023-01-28T18:40:29.655Z,3.20
2023-01-28T18:42:43.109Z,16.20
2023-01-28T18:44:56.469Z,3.90
2023-01-28T18:47:10.640Z,5.70
2023-01-28T18:49:23.661Z,4.60
2023-01-28T18:51:37.158Z,5.80
2023-01-28T18:53:50.065Z,4.00
2023-01-28T18:56:06.943Z,7.30
2023-01-28T18:58:19.854Z,3.70
2023-01-28T19:00:33.191Z,4.20
2023-01-28T19:02:47.011Z,6.30
2023-01-28T19:05:01.331Z,3.60
2023-01-28T19:07:14.637Z,7.30
2023-01-28T19:09:27.842Z,5.60
2023-01-28T19:11:42.174Z,6.60
2023-01-28T19:13:54.999Z,3.80
2023-01-28T19:16:10.034Z,3.40
2023-01-28T19:18:24.010Z,2.10
2023-01-28T19:20:37.682Z,2.30
2023-01-28T19:22:51.326Z,3.40
2023-01-28T19:25:04.260Z,3.60
2023-01-28T19:27:17.520Z,2.70
2023-01-28T19:29:31.892Z,3.20
2023-01-28T19:31:44.864Z,4.80
2023-01-28T19:34:01.063Z,2.90
2023-01-28T19:36:14.807Z,1.70
2023-01-28T19:38:28.800Z,1.70
2023-01-28T19:40:43.780Z,3.10
2023-01-28T19:42:58.123Z,7.70
2023-01-28T19:45:12.287Z,7.20
2023-01-28T19:47:26.231Z,2.90
2023-01-28T19:49:40.201Z,6.00
2023-01-28T19:51:53.370Z,4.20
2023-01-28T19:54:06.503Z,3.10
2023-01-28T19:56:20.035Z,4.60
2023-01-28T19:58:36.403Z,6.40
2023-01-28T20:00:49.400Z,5.40
2023-01-28T20:03:02.779Z,5.30
2023-01-28T20:05:16.848Z,3.60
2023-01-28T20:07:30.246Z,9.40
2023-01-28T20:09:43.656Z,6.90
2023-01-28T20:11:57.515Z,8.60
2023-01-28T20:14:11.071Z,3.30
2023-01-28T20:16:26.010Z,3.00
2023-01-28T20:18:39.090Z,4.60
2023-01-28T20:20:59.749Z,3.20
2023-01-28T20:23:13.161Z,4.60
2023-01-28T20:25:27.011Z,3.10
2023-01-28T20:27:40.031Z,1.90
2023-01-28T20:29:53.760Z,2.30
2023-01-28T20:32:17.528Z,1.60
2023-01-28T20:34:32.030Z,1.90
2023-01-28T20:36:45.319Z,2.40
2023-01-28T20:38:58.711Z,2.60
2023-01-28T20:41:16.224Z,1.80
2023-01-28T20:43:29.184Z,1.60
2023-01-28T20:45:42.420Z,1.70
2023-01-28T20:47:55.525Z,1.00
2023-01-28T20:50:10.380Z,1.90
2023-01-28T20:52:23.553Z,1.30
2023-01-28T20:54:37.523Z,1.60
2023-01-28T20:56:52.190Z,3.20
2023-01-28T20:59:07.002Z,2.00
2023-01-28T21:01:26.025Z,2.90
2023-01-28T21:03:40.962Z,1.80
2023-01-28T21:05:56.393Z,2.00
2023-01-28T21:08:09.779Z,2.70
2023-01-28T21:10:23.580Z,1.80
2023-01-28T21:12:36.998Z,2.90
2023-01-28T21:14:51.354Z,1.80
2023-01-28T21:17:05.363Z,0.90
2023-01-28T21:19:18.621Z,1.20
2023-01-28T21:21:33.760Z,0.90
2023-01-28T21:23:47.266Z,1.90
2023-01-28T21:26:03.834Z,2.10
2023-01-28T21:28:17.555Z,0.90
2023-01-28T21:30:30.763Z,1.30
2023-01-28T21:32:44.000Z,2.80
2023-01-28T21:34:57.061Z,1.50
2023-01-28T21:37:10.253Z,1.20
2023-01-28T21:39:23.350Z,2.10
2023-01-28T21:41:36.700Z,2.00
2023-01-28T21:43:53.369Z,1.80
2023-01-28T21:46:06.561Z,1.10
2023-01-28T21:48:19.765Z,1.00
2023-01-28T21:50:52.951Z,2.00
2023-01-28T21:53:08.207Z,1.50
2023-01-28T21:55:21.790Z,1.70
2023-01-28T21:57:34.733Z,1.20
2023-01-28T21:59:48.230Z,1.50
2023-01-28T22:02:02.221Z,0.70
2023-01-28T22:04:15.338Z,0.80
2023-01-28T22:06:28.753Z,1.60
2023-01-28T22:08:44.840Z,0.70
2023-01-28T22:10:58.992Z,1.00
2023-01-28T22:13:11.933Z,1.70
2023-01-28T22:15:25.487Z,1.00
2023-01-28T22:17:38.989Z,1.50
2023-01-28T22:19:52.082Z,1.70
2023-01-28T22:22:04.933Z,1.00
2023-01-28T22:24:20.067Z,1.10
2023-01-28T22:26:33.179Z,0.50
2023-01-28T22:28:47.560Z,1.00
2023-01-28T22:31:08.517Z,1.10
2023-01-28T22:33:22.169Z,1.00
2023-01-28T22:35:35.153Z,1.60
2023-01-28T22:37:49.562Z,1.60
2023-01-28T22:40:03.270Z,2.80
2023-01-28T22:42:17.036Z,2.20
2023-01-28T22:44:30.031Z,2.40
2023-01-28T22:46:43.038Z,2.10
2023-01-28T22:48:56.603Z,1.20
2023-01-28T22:51:11.112Z,0.90
2023-01-28T22:53:24.071Z,1.20
2023-01-28T22:55:39.201Z,0.50
2023-01-28T22:57:53.289Z,1.10
2023-01-28T23:00:09.213Z,1.40
2023-01-28T23:02:22.839Z,1.30
2023-01-28T23:04:36.635Z,1.60
2023-01-28T23:06:49.859Z,1.20
2023-01-28T23:09:03.279Z,0.80
2023-01-28T23:11:26.207Z,0.80
2023-01-28T23:13:52.540Z,1.00
2023-01-28T23:16:21.460Z,1.00
2023-01-28T23:18:52.489Z,1.10
2023-01-28T23:21:21.590Z,0.70
2023-01-28T23:23:51.060Z,0.80
2023-01-28T23:26:05.672Z,1.50
2023-01-28T23:28:20.412Z,1.40
2023-01-28T23:30:33.447Z,2.60
2023-01-28T23:32:49.259Z,2.80
2023-01-28T23:35:03.447Z,1.50
2023-01-28T23:37:17.697Z,2.90
2023-01-28T23:39:31.188Z,1.70
2023-01-28T23:41:44.099Z,2.10
2023-01-28T23:43:57.229Z,2.20
2023-01-28T23:46:11.511Z,2.00
2023-01-28T23:48:25.593Z,1.80
2023-01-28T23:50:39.686Z,0.90
2023-01-28T23:52:53.670Z,0.70
2023-01-28T23:55:07.439Z,0.60
2023-01-28T23:57:21.289Z,0.90
2023-01-28T23:59:34.310Z,0.60
